Time;durP1;ratioP1;P1;durP2;ratioP2;P2;SDS_P1;SDS_P2;PMS_P1;PMS_P2;Temp;Humidity;BMP_temperature;BMP_pressure;BME280_temperature;BME280_humidity;BME280_pressure;Samples;Min_cycle;Max_cycle;Signal;HPM_P1;HPM_P2
2022/09/09 00:00:12;;;;;;;5.70;3.28;;;;;;;26.36;60.66;100646.53;5076298;28;20044;-76
2022/09/09 00:02:46;;;;;;;5.63;3.45;;;;;;;26.38;60.53;100635.50;5076229;28;20045;-76
2022/09/09 00:05:36;;;;;;;3.90;3.45;;;;;;;26.38;60.69;100646.34;5076192;28;20045;-76
2022/09/09 00:08:04;;;;;;;4.47;3.08;;;;;;;26.37;60.71;100641.94;5075972;28;20380;-76
2022/09/09 00:10:46;;;;;;;5.72;3.55;;;;;;;26.37;60.44;100637.38;5076161;28;20044;-76
2022/09/09 00:13:23;;;;;;;4.75;2.90;;;;;;;26.36;60.59;100634.81;5076113;28;20052;-76
2022/09/09 00:19:29;;;;;;;6.95;3.30;;;;;;;26.38;60.60;100640.94;5075781;28;20044;-76
2022/09/09 00:21:58;;;;;;;3.67;3.22;;;;;;;26.37;60.51;100644.66;5075957;28;20052;-76
2022/09/09 00:24:41;;;;;;;4.90;2.88;;;;;;;26.38;60.47;100630.06;5076199;28;20071;-76
2022/09/09 00:27:17;;;;;;;4.13;2.67;;;;;;;26.37;60.45;100645.50;5075687;28;20435;-76
2022/09/09 00:29:58;;;;;;;3.65;2.80;;;;;;;26.38;60.69;100640.94;5074722;28;20059;-76
2022/09/09 00:32:30;;;;;;;4.97;3.15;;;;;;;26.38;60.12;100632.78;5075478;28;20060;-76
2022/09/09 00:35:25;;;;;;;7.13;3.25;;;;;;;26.37;60.46;100639.22;5075673;28;20045;-76
2022/09/09 00:37:57;;;;;;;6.03;3.00;;;;;;;26.37;60.46;100636.50;5072788;28;20063;-76
2022/09/09 00:40:37;;;;;;;;;;;;;;;26.36;60.29;100632.94;5074948;28;20053;-76
2022/09/09 00:43:35;;;;;;;3.85;2.72;;;;;;;26.37;60.21;100636.50;5074618;28;19943;-76
2022/09/09 00:46:08;;;;;;;6.18;2.83;;;;;;;26.36;60.20;100632.94;5075256;28;20044;-76
2022/09/09 00:48:57;;;;;;;7.45;3.15;;;;;;;26.36;60.39;100632.94;5074533;28;20055;-76
2022/09/09 00:51:46;;;;;;;3.58;2.90;;;;;;;26.37;60.04;100622.94;5074411;28;20049;-76
2022/09/09 00:54:35;;;;;;;4.55;2.70;;;;;;;26.37;60.11;100623.81;5075223;28;20051;-76
2022/09/09 00:57:21;;;;;;;4.10;2.88;;;;;;;26.36;60.25;100627.50;5074233;28;20059;-75
2022/09/09 00:59:58;;;;;;;5.70;3.13;;;;;;;26.36;59.97;100622.09;5074209;28;20511;-75
2022/09/09 01:02:54;;;;;;;7.03;3.10;;;;;;;26.36;60.30;100630.22;5074020;28;20048;-76
2022/09/09 01:05:36;;;;;;;4.45;2.97;;;;;;;26.36;60.20;100626.69;5073965;28;20053;-76
2022/09/09 01:08:16;;;;;;;4.90;2.90;;;;;;;26.37;60.04;100633.78;5073163;28;20044;-76
2022/09/09 01:10:54;;;;;;;6.25;3.38;;;;;;;26.36;60.03;100626.69;5074015;28;20063;-76
2022/09/09 01:13:30;;;;;;;5.85;3.17;;;;;;;26.36;60.13;100627.50;5074881;28;20400;-76
2022/09/09 01:16:03;;;;;;;4.43;2.67;;;;;;;26.36;60.01;100630.22;5073797;28;20056;-76
2022/09/09 01:18:40;;;;;;;4.68;2.85;;;;;;;26.36;60.12;100632.94;5073486;28;20059;-76
2022/09/09 01:21:07;;;;;;;4.18;2.75;;;;;;;26.37;59.87;100633.78;5073717;28;20045;-76
2022/09/09 01:23:57;;;;;;;3.35;2.67;;;;;;;26.35;59.64;100630.44;5073474;28;20056;-76
2022/09/09 01:26:35;;;;;;;3.53;2.75;;;;;;;26.35;59.99;100625.84;5073484;28;20067;-76
2022/09/09 01:29:09;;;;;;;4.75;2.72;;;;;;;26.35;59.95;100620.41;5073436;28;20496;-76
2022/09/09 01:31:41;;;;;;;;;;;;;;;26.35;60.05;100617.69;5057890;28;20049;-76
2022/09/09 01:34:14;;;;;;;3.45;3.03;;;;;;;26.35;59.81;100619.56;5073378;28;19920;-76
2022/09/09 01:36:59;;;;;;;5.60;3.15;;;;;;;26.35;59.53;100611.44;5073493;28;20044;-76
2022/09/09 01:39:28;;;;;;;4.72;3.38;;;;;;;26.35;59.57;100612.28;5073315;28;20053;-76
2022/09/09 01:42:06;;;;;;;6.22;3.03;;;;;;;26.35;59.39;100611.44;5073414;28;20060;-76
2022/09/09 01:44:35;;;;;;;5.10;3.45;;;;;;;26.35;59.37;100608.72;5074216;28;20040;-76
2022/09/09 01:47:05;;;;;;;4.45;3.33;;;;;;;26.33;59.43;100606.19;5073026;28;20040;-76
2022/09/09 01:49:33;;;;;;;3.95;3.17;;;;;;;26.34;59.43;100607.88;5073054;28;20407;-76
2022/09/09 01:52:08;;;;;;;5.60;2.97;;;;;;;26.34;59.73;100612.47;5073360;28;20381;-76
2022/09/09 01:54:38;;;;;;;4.05;3.22;;;;;;;26.34;59.70;100610.59;5073251;28;20412;-75
2022/09/09 01:57:30;;;;;;;5.05;3.05;;;;;;;26.34;59.16;100607.03;5057435;28;20468;-76
2022/09/09 02:00:13;;;;;;;3.47;2.72;;;;;;;26.34;58.95;100612.47;5072943;28;20067;-76
2022/09/09 02:02:58;;;;;;;8.07;3.47;;;;;;;26.34;58.86;100609.75;5080745;28;20069;-76
2022/09/09 02:05:37;;;;;;;7.40;3.22;;;;;;;26.33;58.87;100622.47;5072954;28;20063;-76
2022/09/09 02:08:18;;;;;;;4.00;2.88;;;;;;;26.32;59.01;100619.94;5072999;28;20060;-82
2022/09/09 02:11:15;;;;;;;4.57;3.38;;;;;;;26.33;58.93;100624.31;5057382;28;20052;-78
2022/09/09 02:14:02;;;;;;;6.43;3.33;;;;;;;26.28;58.62;100624.88;5072548;28;20396;-76
2022/09/09 02:16:47;;;;;;;6.38;3.40;;;;;;;26.26;58.28;100616.09;5074116;28;20439;-77
2022/09/09 02:19:25;;;;;;;4.88;3.70;;;;;;;26.24;58.18;100614.56;5073128;28;20475;-77
2022/09/09 02:22:19;;;;;;;4.10;3.20;;;;;;;26.20;58.06;100613.25;5076286;28;20060;-77
2022/09/09 02:24:47;;;;;;;4.57;3.17;;;;;;;26.19;58.18;100620.56;5072868;28;20048;-77
2022/09/09 02:27:22;;;;;;;4.65;3.30;;;;;;;26.18;58.21;100623.47;5073558;28;20064;-75
2022/09/09 02:29:52;;;;;;;3.15;2.67;;;;;;;26.18;58.09;100616.16;5072611;28;20515;-75
2022/09/09 02:32:35;;;;;;;4.60;3.07;;;;;;;26.17;58.13;100611.75;5072633;28;20053;-75
2022/09/09 02:35:13;;;;;;;5.45;3.63;;;;;;;26.16;58.04;100614.63;5073033;28;20308;-76
2022/09/09 02:37:48;;;;;;;6.45;3.30;;;;;;;26.14;58.06;100606.69;5072641;28;20041;-75
2022/09/09 02:40:16;;;;;;;3.97;3.13;;;;;;;26.14;58.25;100602.09;5072801;28;20056;-75
2022/09/09 02:42:49;;;;;;;3.65;2.90;;;;;;;26.14;58.14;100604.81;5072373;28;20049;-75
2022/09/09 02:45:24;;;;;;;5.88;2.85;;;;;;;26.14;58.07;100603.97;5072158;28;20052;-75
2022/09/09 02:48:07;;;;;;;4.60;3.38;;;;;;;26.13;57.75;100600.44;5072625;28;20052;-76
2022/09/09 02:50:50;;;;;;;4.72;4.10;;;;;;;26.11;57.61;100598.91;5072823;28;20377;-76
2022/09/09 02:53:23;;;;;;;4.85;3.22;;;;;;;26.11;57.59;100601.63;5072614;28;20052;-75
2022/09/09 02:55:57;;;;;;;5.05;3.38;;;;;;;26.10;57.64;100603.50;5072591;28;20067;-76
2022/09/09 02:58:26;;;;;;;4.22;2.90;;;;;;;26.09;57.64;100601.81;5072056;28;20045;-75
2022/09/09 03:00:58;;;;;;;;;;;;;;;26.08;57.55;100605.53;5072842;28;20068;-75
2022/09/09 03:03:26;;;;;;;5.45;3.42;;;;;;;26.07;57.65;100597.59;5072485;28;20390;-76
2022/09/09 03:05:56;;;;;;;8.75;4.28;;;;;;;26.07;57.63;100594.88;5072104;28;20053;-75
2022/09/09 03:08:27;;;;;;;5.88;3.95;;;;;;;26.05;57.57;100597.78;5072038;28;20049;-75
2022/09/09 03:10:58;;;;;;;6.30;3.38;;;;;;;26.04;57.41;100596.06;5072282;28;20045;-75
2022/09/09 03:13:27;;;;;;;4.10;3.30;;;;;;;26.03;57.48;100602.53;5072440;28;20403;-75
2022/09/09 03:15:55;;;;;;;6.70;3.53;;;;;;;26.02;57.31;100600.84;5072315;28;20044;-75
2022/09/09 03:18:23;;;;;;;5.50;4.68;;;;;;;25.99;57.07;100592.22;5072314;28;20055;-76
2022/09/09 03:20:53;;;;;;;5.82;3.60;;;;;;;25.97;57.21;100595.13;5072185;28;20070;-75
2022/09/09 03:23:21;;;;;;;5.55;3.70;;;;;;;25.96;57.12;100582.56;5072116;28;20056;-76
2022/09/09 03:25:51;;;;;;;6.60;3.50;;;;;;;25.94;56.71;100590.06;5072016;28;20055;-76
2022/09/09 03:28:30;;;;;;;5.13;3.30;;;;;;;25.94;57.02;100594.66;5072385;28;20049;-75
2022/09/09 03:31:01;;;;;;;4.90;3.42;;;;;;;25.91;57.04;100598.56;5074937;28;20049;-75
2022/09/09 03:33:34;;;;;;;6.22;4.50;;;;;;;25.92;57.02;100588.53;5075294;28;20052;-74
2022/09/09 03:36:01;;;;;;;4.95;3.85;;;;;;;25.91;57.13;100595.84;5076875;28;20395;-74
2022/09/09 03:38:29;;;;;;;5.88;3.92;;;;;;;25.92;57.29;100592.09;5075335;28;20051;-74
2022/09/09 03:40:58;;;;;;;5.00;3.83;;;;;;;25.92;56.93;100592.09;5075476;28;20056;-74
2022/09/09 03:43:26;;;;;;;3.63;3.10;;;;;;;25.90;56.88;100594.16;5075198;28;20048;-74
2022/09/09 03:45:57;;;;;;;5.50;3.92;;;;;;;25.89;56.71;100595.19;5075259;28;20056;-74
2022/09/09 03:48:27;;;;;;;7.40;3.13;;;;;;;25.89;56.74;100597.91;5074758;28;20055;-74
2022/09/09 03:50:57;;;;;;;7.88;4.55;;;;;;;25.89;56.42;100603.34;5075040;28;20048;-75
2022/09/09 03:53:26;;;;;;;7.28;4.10;;;;;;;25.88;56.07;100594.31;5074695;28;20060;-75
2022/09/09 03:55:55;;;;;;;5.25;3.55;;;;;;;25.84;55.53;100593.00;5075089;28;20053;-75
2022/09/09 03:58:26;;;;;;;6.07;3.70;;;;;;;25.83;55.69;100598.63;5074644;28;20040;-75
2022/09/09 04:01:01;;;;;;;4.03;3.53;;;;;;;25.84;55.67;100592.16;5075552;28;20052;-75
2022/09/09 04:03:29;;;;;;;4.30;3.42;;;;;;;25.84;55.45;100597.59;5074825;28;20052;-75
2022/09/09 04:05:59;;;;;;;6.20;3.90;;;;;;;25.83;55.42;100598.63;5074759;28;20052;-75
2022/09/09 04:08:33;;;;;;;6.13;3.43;;;;;;;25.82;55.15;100589.63;5058464;28;20052;-75
2022/09/09 04:11:05;;;;;;;5.23;3.70;;;;;;;25.82;55.43;100588.81;5075999;28;20270;-75
2022/09/09 04:13:35;;;;;;;6.88;4.00;;;;;;;25.81;55.24;100592.53;5076220;28;20045;-75
2022/09/09 04:16:03;;;;;;;6.78;3.65;;;;;;;25.80;55.29;100588.97;5074653;28;20412;-75
2022/09/09 04:18:34;;;;;;;5.00;3.97;;;;;;;25.79;55.38;100581.84;5074529;28;20044;-75
2022/09/09 04:21:04;;;;;;;5.13;4.15;;;;;;;25.81;55.21;100579.00;5074933;28;20071;-75
2022/09/09 04:23:34;;;;;;;4.05;3.25;;;;;;;25.81;55.18;100581.69;5074613;28;20052;-75
2022/09/09 04:26:02;;;;;;;5.88;4.20;;;;;;;25.80;55.00;100571.84;5074056;28;20055;-75
2022/09/09 04:28:35;;;;;;;6.95;3.97;;;;;;;25.79;54.88;100581.84;5074272;28;20056;-75
2022/09/09 04:31:09;;;;;;;;;;;;;;;25.80;54.91;100574.56;5074882;28;20404;-75
2022/09/09 04:33:39;;;;;;;6.45;3.85;;;;;;;25.78;54.65;100569.34;5073952;28;19920;-74
2022/09/09 04:36:08;;;;;;;5.70;3.65;;;;;;;25.78;54.40;100573.91;5074122;28;20056;-75
2022/09/09 04:38:36;;;;;;;8.05;3.92;;;;;;;25.76;54.49;100573.22;5074011;28;20049;-75
2022/09/09 04:41:04;;;;;;;7.18;3.80;;;;;;;25.74;54.55;100569.84;5074370;28;20404;-75
2022/09/09 04:43:34;;;;;;;6.63;4.00;;;;;;;25.74;54.45;100572.56;5074037;28;20056;-75
2022/09/09 04:46:03;;;;;;;5.45;3.50;;;;;;;25.74;54.42;100567.97;5074052;28;20049;-75
2022/09/09 04:48:31;;;;;;;6.15;4.18;;;;;;;25.71;54.24;100556.66;5074233;28;20048;-75
2022/09/09 04:51:04;;;;;;;7.15;3.72;;;;;;;25.70;54.35;100565.81;5073894;28;20049;-75
2022/09/09 04:53:37;;;;;;;4.88;3.40;;;;;;;25.71;54.43;100570.19;5073679;28;20055;-75
2022/09/09 04:56:11;;;;;;;4.53;3.80;;;;;;;25.71;54.12;100567.50;5073809;28;20397;-75
2022/09/09 04:58:43;;;;;;;5.32;3.47;;;;;;;25.68;54.06;100574.09;5073843;28;20059;-75
2022/09/09 05:01:17;;;;;;;8.18;4.28;;;;;;;25.68;53.84;100582.25;5073875;28;20060;-74
2022/09/09 05:03:46;;;;;;;5.47;4.00;;;;;;;25.68;53.69;100578.69;5073627;28;20048;-74
2022/09/09 05:06:19;;;;;;;4.45;3.70;;;;;;;25.65;53.71;100575.31;5073627;28;20404;-75
2022/09/09 05:08:51;;;;;;;5.67;4.07;;;;;;;25.65;53.53;100577.19;5073404;28;20059;-74
2022/09/09 05:11:26;;;;;;;6.28;3.75;;;;;;;25.64;53.26;100579.06;5074282;28;20049;-75
2022/09/09 05:13:58;;;;;;;5.60;3.38;;;;;;;25.63;53.19;100580.06;5073466;28;20048;-75
2022/09/09 05:16:29;;;;;;;7.07;4.00;;;;;;;25.64;53.09;100580.91;5073450;28;20372;-74
2022/09/09 05:18:57;;;;;;;4.57;3.83;;;;;;;25.63;53.01;100584.66;5073144;28;20423;-75
2022/09/09 05:21:26;;;;;;;5.80;4.40;;;;;;;25.62;53.04;100577.56;5073667;28;20407;-75
2022/09/09 05:23:54;;;;;;;4.30;3.30;;;;;;;25.62;52.81;100583.81;5073200;28;20048;-75
2022/09/09 05:26:22;;;;;;;4.20;3.50;;;;;;;25.62;52.91;100589.22;5073232;28;20060;-75
2022/09/09 05:28:52;;;;;;;6.25;4.18;;;;;;;25.61;52.67;100586.72;5073085;28;20052;-74
2022/09/09 05:31:19;;;;;;;6.07;3.92;;;;;;;25.60;52.84;100596.72;5073159;28;20052;-75
2022/09/09 05:33:50;;;;;;;5.97;4.32;;;;;;;25.58;52.88;100596.03;5072997;28;20143;-75
2022/09/09 05:36:20;;;;;;;6.97;4.20;;;;;;;25.57;52.65;100597.06;5072878;28;20048;-75
2022/09/09 05:38:53;;;;;;;4.43;3.70;;;;;;;25.57;52.78;100607.06;5073053;28;20048;-75
2022/09/09 05:41:22;;;;;;;6.63;4.43;;;;;;;25.54;52.75;100600.13;5073684;28;20392;-75
2022/09/09 05:43:52;;;;;;;6.97;3.78;;;;;;;25.53;52.78;100609.28;5073697;28;20052;-75
2022/09/09 05:46:23;;;;;;;6.55;4.32;;;;;;;25.51;52.91;100614.03;5072845;28;20416;-75
2022/09/09 05:48:53;;;;;;;5.97;4.03;;;;;;;25.51;52.81;100599.63;5072786;28;20045;-74
2022/09/09 05:51:30;;;;;;;4.53;3.88;;;;;;;25.53;53.09;100603.88;5072404;28;20059;-75
2022/09/09 05:53:59;;;;;;;6.00;4.30;;;;;;;25.52;52.79;100607.59;5072400;28;20059;-75
2022/09/09 05:56:30;;;;;;;6.22;3.85;;;;;;;25.50;53.23;100612.34;5073384;28;20045;-75
2022/09/09 05:58:59;;;;;;;7.20;3.75;;;;;;;25.52;53.37;100614.88;5072349;28;20055;-75
2022/09/09 06:01:33;;;;;;;7.60;4.03;;;;;;;25.51;53.26;100611.31;5072592;28;20057;-74
2022/09/09 06:04:02;;;;;;;5.90;3.97;;;;;;;25.51;53.32;100616.75;5072687;28;20048;-75
2022/09/09 06:06:36;;;;;;;5.60;4.30;;;;;;;25.52;53.81;100615.75;5072525;28;20411;-75
2022/09/09 06:09:10;;;;;;;6.35;4.43;;;;;;;25.54;53.70;100621.81;5072510;28;20498;-75
2022/09/09 06:11:40;;;;;;;8.80;3.97;;;;;;;25.55;53.54;100623.50;5072584;28;20044;-75
2022/09/09 06:14:08;;;;;;;7.18;4.93;;;;;;;25.55;53.26;100618.06;5073237;28;20484;-75
2022/09/09 06:16:43;;;;;;;5.55;4.13;;;;;;;25.56;53.62;100608.94;5073079;28;20059;-75
2022/09/09 06:19:26;;;;;;;11.50;3.97;;;;;;;25.59;53.89;100615.84;5072339;28;20041;-74
2022/09/09 06:21:55;;;;;;;5.15;3.60;;;;;;;25.61;53.64;100602.97;5072452;28;20377;-75
2022/09/09 06:24:23;;;;;;;7.72;3.90;;;;;;;25.62;53.54;100610.91;5073398;28;20049;-75
2022/09/09 06:26:50;;;;;;;5.80;3.40;;;;;;;25.66;53.99;100608.69;5072299;28;20052;-75
2022/09/09 06:29:25;;;;;;;7.50;3.60;;;;;;;25.69;53.95;100607.50;5072234;28;20491;-74
2022/09/09 06:31:53;;;;;;;3.65;3.30;;;;;;;25.70;53.67;100603.75;5072098;28;20667;-75
2022/09/09 06:34:22;;;;;;;5.45;2.80;;;;;;;25.73;53.38;100609.69;5072203;28;20530;-74
2022/09/09 06:36:55;;;;;;;5.35;3.50;;;;;;;25.75;52.74;100601.34;5072485;28;20063;-74
2022/09/09 06:39:22;;;;;;;4.85;2.92;;;;;;;25.76;53.06;100594.91;5071972;28;20068;-75
2022/09/09 06:41:52;;;;;;;4.03;3.20;;;;;;;25.77;53.14;100593.91;5072302;28;20610;-75
2022/09/09 06:44:49;;;;;;;9.00;3.35;;;;;;;25.78;53.54;100595.63;5071833;28;20123;-76
2022/09/09 06:47:28;;;;;;;10.38;5.47;;;;;;;25.70;52.23;100598.34;5070978;28;20523;-75
2022/09/09 06:49:58;;;;;;;8.98;5.97;;;;;;;25.54;52.23;100593.88;5072698;28;20547;-80
2022/09/09 06:52:25;;;;;;;8.48;5.05;;;;;;;25.44;52.04;100587.81;5073294;28;20047;-78
2022/09/09 06:54:54;;;;;;;6.55;4.70;;;;;;;25.34;51.05;100594.31;5072570;28;20067;-78
2022/09/09 06:57:22;;;;;;;8.35;4.90;;;;;;;25.27;50.57;100587.06;5071655;28;20056;-78
2022/09/09 07:00:05;;;;;;;5.97;4.78;;;;;;;25.18;51.01;100594.38;5071875;28;20048;-78
2022/09/09 07:02:38;;;;;;;7.72;4.68;;;;;;;25.15;51.44;100595.56;5073606;28;20044;-75
2022/09/09 07:05:08;;;;;;;8.00;5.68;;;;;;;25.15;51.77;100589.31;5074896;28;20055;-76
2022/09/09 07:07:36;;;;;;;10.02;6.90;;;;;;;25.10;52.82;100599.84;5077894;28;20059;-75
2022/09/09 07:10:05;;;;;;;10.93;6.28;;;;;;;25.02;53.50;100594.41;5077905;28;20044;-75
2022/09/09 07:12:33;;;;;;;8.68;6.57;;;;;;;24.96;54.21;100593.25;5077134;28;20048;-75
2022/09/09 07:15:00;;;;;;;9.50;6.97;;;;;;;24.95;54.68;100593.41;5077511;28;20048;-74
2022/09/09 07:17:28;;;;;;;6.78;6.10;;;;;;;24.91;55.13;100595.63;5094835;28;20430;-74
2022/09/09 07:19:57;;;;;;;7.35;5.70;;;;;;;24.95;55.19;100586.13;5077156;28;20048;-74
2022/09/09 07:22:25;;;;;;;12.18;7.85;;;;;;;24.98;55.89;100599.34;5080635;28;20411;-74
2022/09/09 07:24:52;;;;;;;11.02;7.70;;;;;;;24.92;56.69;100597.34;5076822;28;20040;-74
2022/09/09 07:27:21;;;;;;;10.43;8.23;;;;;;;24.91;57.37;100598.34;5075415;28;20044;-74
2022/09/09 07:29:48;;;;;;;9.05;7.82;;;;;;;24.88;57.54;100606.84;5075066;28;20048;-74
2022/09/09 07:32:16;;;;;;;10.25;6.82;;;;;;;24.91;57.82;100603.75;5074966;28;20139;-74
2022/09/09 07:34:43;;;;;;;9.35;7.70;;;;;;;24.95;59.13;100610.50;5075654;28;20063;-74
2022/09/09 07:37:13;;;;;;;12.30;10.02;;;;;;;24.95;59.33;100610.50;5077800;28;20056;-74
2022/09/09 07:39:43;;;;;;;11.07;9.48;;;;;;;24.90;59.90;100604.78;5077846;28;20044;-74
2022/09/09 07:42:12;;;;;;;18.15;10.10;;;;;;;24.88;60.20;100604.97;5075443;28;20056;-74
2022/09/09 07:44:40;;;;;;;15.27;9.93;;;;;;;24.89;60.74;100608.50;5075257;28;20479;-74
2022/09/09 07:47:10;;;;;;;15.40;11.65;;;;;;;24.84;60.56;100609.03;5074919;28;20052;-74
2022/09/09 07:49:42;;;;;;;18.37;11.57;;;;;;;24.83;61.01;100606.47;5085639;28;20422;-74
2022/09/09 07:52:11;;;;;;;17.80;12.73;;;;;;;24.81;61.37;100614.78;5084705;28;20048;-74
2022/09/09 07:54:45;;;;;;;15.30;13.02;;;;;;;24.78;61.55;100611.59;5075360;28;20499;-74
2022/09/09 07:57:15;;;;;;;15.45;12.52;;;;;;;24.73;61.63;100613.97;5076262;28;20495;-74
2022/09/09 07:59:42;;;;;;;12.75;11.05;;;;;;;24.74;61.92;100612.94;5082270;28;20048;-74
2022/09/09 08:02:09;;;;;;;15.10;10.73;;;;;;;24.76;61.34;100613.63;5095075;28;20048;-74
2022/09/09 08:04:37;;;;;;;12.68;10.32;;;;;;;24.79;60.86;100618.69;5095024;28;20502;-74
2022/09/09 08:07:05;;;;;;;14.02;11.70;;;;;;;24.80;60.66;100623.09;5090322;28;20040;-75
2022/09/09 08:09:39;;;;;;;13.70;12.27;;;;;;;24.81;61.26;100614.78;5083564;28;20044;-75
2022/09/09 08:12:14;;;;;;;15.48;12.77;;;;;;;24.82;62.29;100621.06;5058962;28;20059;-75
2022/09/09 08:14:41;;;;;;;14.18;12.68;;;;;;;24.81;62.53;100630.19;5082093;28;20052;-75
2022/09/09 08:17:09;;;;;;;16.50;14.70;;;;;;;24.79;62.55;100621.38;5084791;28;20052;-75
2022/09/09 08:19:36;;;;;;;15.80;13.70;;;;;;;24.79;62.45;100619.53;5083381;28;20407;-75
2022/09/09 08:22:10;;;;;;;16.45;14.15;;;;;;;24.81;62.81;100617.50;5083562;28;20040;-75
2022/09/09 08:24:39;;;;;;;16.77;14.77;;;;;;;24.83;63.01;100620.03;5074753;28;20049;-75
2022/09/09 08:27:09;;;;;;;17.13;15.43;;;;;;;24.81;63.03;100614.78;5074423;28;20045;-74
2022/09/09 08:29:37;;;;;;;19.45;15.73;;;;;;;24.82;63.41;100618.34;5088941;28;20051;-75
2022/09/09 08:32:05;;;;;;;19.77;16.33;;;;;;;24.84;63.33;100619.03;5093990;28;20392;-74
2022/09/09 08:34:34;;;;;;;18.27;15.80;;;;;;;24.84;63.41;100619.03;5094435;28;20052;-74
2022/09/09 08:37:06;;;;;;;17.35;13.82;;;;;;;24.84;63.39;100625.28;5094082;28;20048;-75
2022/09/09 08:39:37;;;;;;;18.73;14.52;;;;;;;24.85;63.02;100623.41;5093175;28;20070;-74
2022/09/09 08:42:11;;;;;;;16.35;13.43;;;;;;;24.86;62.96;100616.97;5093762;28;20558;-76
2022/09/09 08:45:00;;;;;;;17.98;14.05;;;;;;;24.85;62.08;100618.00;5085431;28;20052;-74
2022/09/09 08:48:01;;;;;;;16.77;14.45;;;;;;;24.83;63.13;100614.59;5078879;28;20067;-75
2022/09/09 08:50:38;;;;;;;21.25;16.30;;;;;;;24.83;63.10;100622.72;5073293;28;20052;-74
2022/09/09 08:53:30;;;;;;;21.10;18.55;;;;;;;24.82;63.27;100610.22;5075156;28;20085;-76
2022/09/09 08:56:01;;;;;;;19.80;15.73;;;;;;;24.81;63.15;100620.22;5076339;28;20044;-74
2022/09/09 08:59:02;;;;;;;20.95;15.13;;;;;;;24.81;63.38;100619.38;5075250;28;20044;-75
2022/09/09 09:01:50;;;;;;;18.65;14.95;;;;;;;24.82;63.47;100624.59;5082418;28;20044;-75
2022/09/09 09:04:50;;;;;;;19.08;14.10;;;;;;;24.83;63.28;100618.19;5090559;28;20047;-75
2022/09/09 09:07:27;;;;;;;18.27;13.35;;;;;;;24.86;63.26;100625.94;5093422;28;20052;-75
2022/09/09 09:10:30;;;;;;;21.77;15.23;;;;;;;24.89;63.38;100624.75;5093696;28;20053;-75
2022/09/09 09:13:15;;;;;;;18.50;15.57;;;;;;;24.90;63.23;100621.88;5093154;28;20287;-75
2022/09/09 09:15:50;;;;;;;22.30;16.83;;;;;;;24.91;63.28;100620.88;5093349;28;20061;-75
2022/09/09 09:18:17;;;;;;;18.35;14.52;;;;;;;24.92;63.02;100619.84;5084544;28;20052;-75
2022/09/09 09:21:23;;;;;;;17.08;13.43;;;;;;;24.95;62.66;100623.22;5094523;28;20486;-75
2022/09/09 09:23:59;;;;;;;15.38;13.00;;;;;;;24.96;62.15;100620.34;5092389;28;20487;-75
2022/09/09 09:26:35;;;;;;;17.25;12.98;;;;;;;24.99;61.45;100619.13;5074674;28;20056;-75
2022/09/09 09:29:12;;;;;;;16.20;12.23;;;;;;;24.99;61.44;100616.44;5073876;28;20430;-75
2022/09/09 09:31:51;;;;;;;14.70;11.32;;;;;;;25.00;60.92;100615.44;5091693;28;20539;-75
2022/09/09 09:34:19;;;;;;;10.52;9.45;;;;;;;25.00;59.39;100618.97;5091175;28;20052;-75
2022/09/09 09:36:58;;;;;;;12.57;7.90;;;;;;;25.01;58.50;100617.13;5074416;28;20422;-75
2022/09/09 09:39:36;;;;;;;11.65;8.00;;;;;;;25.03;58.73;100624.03;5074391;28;20052;-75
2022/09/09 09:42:24;;;;;;;11.10;7.72;;;;;;;25.03;58.33;100618.59;5074287;28;20052;-75
2022/09/09 09:44:54;;;;;;;10.35;7.72;;;;;;;25.05;57.90;100621.16;5074313;28;20392;-75
2022/09/09 09:47:23;;;;;;;8.30;6.88;;;;;;;25.07;57.78;100619.09;5091913;28;20063;-75
2022/09/09 09:50:19;;;;;;;8.13;7.30;;;;;;;25.07;57.70;100619.94;5088182;28;20051;-75
2022/09/09 09:53:00;;;;;;;6.87;6.17;;;;;;;25.10;57.55;100616.09;5074594;28;20454;-74
2022/09/09 09:55:33;;;;;;;8.88;6.43;;;;;;;25.12;57.15;100614.91;5074059;28;20495;-75
2022/09/09 09:58:03;;;;;;;8.55;6.25;;;;;;;25.14;57.49;100614.72;5073914;28;20151;-73
2022/09/09 10:00:34;;;;;;;6.63;5.80;;;;;;;25.17;57.66;100608.13;5091568;28;20048;-74
2022/09/09 10:03:23;;;;;;;6.75;5.45;;;;;;;25.19;56.72;100608.78;5092494;28;20048;-75
2022/09/09 10:05:52;;;;;;;9.80;6.03;;;;;;;25.19;55.09;100612.31;5092782;28;20052;-75
2022/09/09 10:08:20;;;;;;;8.25;4.85;;;;;;;25.21;54.36;100606.75;5092463;28;20044;-74
2022/09/09 10:11:15;;;;;;;10.43;5.05;;;;;;;25.22;53.19;100605.72;5093631;28;20047;-74
2022/09/09 10:14:10;;;;;;;6.05;4.55;;;;;;;25.22;52.24;100605.72;5090681;28;20506;-74
2022/09/09 10:16:55;;;;;;;7.55;4.40;;;;;;;25.22;52.00;100603.84;5093525;28;20376;-74
2022/09/09 10:19:35;;;;;;;8.02;4.32;;;;;;;25.24;51.55;100604.53;5073227;28;20388;-74
2022/09/09 10:22:14;;;;;;;7.45;4.68;;;;;;;25.25;52.19;100603.50;5073612;28;20044;-75
2022/09/09 10:24:52;;;;;;;4.78;4.07;;;;;;;25.28;52.77;100602.28;5073340;28;20373;-75
2022/09/09 10:27:32;;;;;;;8.85;4.22;;;;;;;25.29;52.82;100602.13;5072150;28;20111;-75
2022/09/09 10:30:22;;;;;;;5.97;4.15;;;;;;;25.30;53.22;100603.81;5073457;28;20048;-75
2022/09/09 10:33:02;;;;;;;8.20;4.20;;;;;;;25.32;53.08;100598.19;5073241;28;20056;-75
2022/09/09 10:36:02;;;;;;;7.30;4.38;;;;;;;25.33;53.59;100602.63;5073313;28;20040;-74
2022/09/09 10:38:38;;;;;;;7.40;4.30;;;;;;;25.35;53.44;100605.97;5073559;28;20503;-74
2022/09/09 10:41:35;;;;;;;8.38;4.63;;;;;;;25.35;53.85;100590.56;5077300;28;20055;-74
2022/09/09 10:44:14;;;;;;;5.85;4.07;;;;;;;25.38;53.70;100594.78;5077285;28;20059;-74
2022/09/09 10:47:05;;;;;;;8.10;3.88;;;;;;;25.39;53.43;100591.06;5076267;28;20048;-74
2022/09/09 10:49:52;;;;;;;5.30;3.55;;;;;;;25.42;53.01;100589.88;5077192;28;20041;-74
2022/09/09 10:52:32;;;;;;;7.60;4.13;;;;;;;25.43;53.36;100580.72;5076866;28;20044;-75
2022/09/09 10:55:19;;;;;;;7.63;3.60;;;;;;;25.44;53.28;100579.69;5077082;28;20044;-75
2022/09/09 10:57:47;;;;;;;5.00;3.55;;;;;;;25.47;53.61;100573.91;5077142;28;20407;-75
2022/09/09 11:00:21;;;;;;;4.30;3.80;;;;;;;25.48;54.11;100579.19;5076947;28;20041;-74
2022/09/09 11:03:03;;;;;;;8.05;4.03;;;;;;;25.48;53.90;100572.88;5077575;28;20399;-75
2022/09/09 11:05:33;;;;;;;6.72;4.20;;;;;;;25.49;54.16;100567.31;5076992;28;20048;-75
2022/09/09 11:08:08;;;;;;;5.72;3.95;;;;;;;25.50;54.36;100566.28;5077020;28;20059;-75
2022/09/09 11:10:58;;;;;;;7.60;4.22;;;;;;;25.52;53.91;100568.78;5076523;28;20044;-75
2022/09/09 11:13:51;;;;;;;7.85;3.97;;;;;;;25.53;53.66;100565.91;5076251;28;20049;-75
2022/09/09 11:16:34;;;;;;;5.15;3.85;;;;;;;25.55;53.61;100554.88;5076078;28;20052;-75
2022/09/09 11:19:23;;;;;;;8.02;4.10;;;;;;;25.55;53.64;100546.75;5076451;28;20067;-74
2022/09/09 11:21:51;;;;;;;4.22;3.75;;;;;;;25.57;53.72;100553.69;5076472;28;20071;-74
2022/09/09 11:24:35;;;;;;;5.15;3.97;;;;;;;25.59;53.48;100556.22;5076237;28;20048;-74
2022/09/09 11:27:14;;;;;;;5.32;3.95;;;;;;;25.59;53.56;100556.22;5076768;28;20055;-75
2022/09/09 11:30:02;;;;;;;5.70;3.50;;;;;;;25.61;53.64;100560.44;5075073;28;20048;-75
2022/09/09 11:33:04;;;;;;;6.72;4.13;;;;;;;25.62;53.29;100553.16;5074738;28;20053;-75
2022/09/09 11:35:57;;;;;;;5.28;3.47;;;;;;;25.65;52.96;100552.81;5076463;28;20049;-75
2022/09/09 11:38:32;;;;;;;7.90;4.53;;;;;;;25.65;53.26;100550.09;5075863;28;20476;-75
2022/09/09 11:41:03;;;;;;;12.48;4.53;;;;;;;25.68;52.86;100560.56;5075799;28;20418;-75
2022/09/09 11:43:41;;;;;;;11.05;4.72;;;;;;;25.69;52.58;100548.69;5076004;28;20052;-75
2022/09/09 11:46:10;;;;;;;8.13;3.90;;;;;;;25.71;52.11;100552.06;5075959;28;20115;-75
2022/09/09 11:48:44;;;;;;;3.95;2.85;;;;;;;25.74;51.85;100549.00;5075983;28;20052;-76
2022/09/09 11:51:20;;;;;;;5.50;3.13;;;;;;;25.77;52.06;100547.81;5075221;28;20043;-75
2022/09/09 11:53:57;;;;;;;8.43;3.30;;;;;;;25.78;51.33;100553.06;5075801;28;20403;-75
2022/09/09 11:56:31;;;;;;;4.88;3.33;;;;;;;25.80;51.57;100547.44;5075601;28;20050;-77
2022/09/09 11:59:06;;;;;;;6.32;2.90;;;;;;;25.82;51.91;100542.69;5075554;28;20061;-76
2022/09/09 12:01:42;;;;;;;5.53;2.67;;;;;;;25.82;51.58;100546.25;5075385;28;20045;-76
2022/09/09 12:04:17;;;;;;;4.40;2.50;;;;;;;25.83;51.18;100544.38;5075790;28;20044;-76